createdAt,value
2024-03-08T05:36:30.546Z,60641.41
2024-03-08T05:38:57.169Z,60591.84
2024-03-08T05:41:23.784Z,60624.91
2024-03-08T05:43:50.455Z,60610.44
2024-03-08T05:46:19.237Z,60608.38
2024-03-08T05:48:45.922Z,60633.16
2024-03-08T05:51:13.485Z,60596.00
2024-03-08T05:53:40.146Z,60591.84
2024-03-08T05:56:07.113Z,60604.25
2024-03-08T05:58:33.761Z,60596.00
2024-03-08T06:01:00.374Z,60560.88
2024-03-08T06:03:27.372Z,60593.91
2024-03-08T06:05:54.374Z,60565.00
2024-03-08T06:08:21.020Z,60587.72
2024-03-08T06:10:49.907Z,60569.16
2024-03-08T06:13:16.593Z,60560.88
2024-03-08T06:15:43.351Z,60552.63
2024-03-08T06:18:12.802Z,60562.94
2024-03-08T06:20:39.555Z,60560.88
2024-03-08T06:23:06.234Z,60583.59
2024-03-08T06:25:32.830Z,60575.34
2024-03-08T06:27:59.441Z,60585.66
2024-03-08T06:30:26.122Z,60577.41
2024-03-08T06:32:52.874Z,60569.16
2024-03-08T06:35:21.442Z,60610.44
2024-03-08T06:37:48.195Z,60598.06
2024-03-08T06:40:15.495Z,60583.59
2024-03-08T06:42:42.772Z,60600.13
2024-03-08T06:45:11.254Z,60585.66
2024-03-08T06:47:38.299Z,60585.66
2024-03-08T06:50:05.656Z,60585.66
2024-03-08T06:52:32.311Z,60598.06
2024-03-08T06:54:59.246Z,60593.91
2024-03-08T06:57:25.999Z,60602.19
2024-03-08T06:59:53.579Z,60629.03
2024-03-08T07:02:20.382Z,60610.44
2024-03-08T07:04:47.082Z,60635.22
2024-03-08T07:07:13.691Z,60610.44
2024-03-08T07:09:40.309Z,60649.69
2024-03-08T07:12:07.683Z,60626.97
2024-03-08T07:14:34.372Z,60602.19
2024-03-08T07:17:03.252Z,60569.16
2024-03-08T07:19:30.698Z,60577.41
2024-03-08T07:21:57.287Z,60565.00
2024-03-08T07:24:39.129Z,60546.44
2024-03-08T07:27:08.925Z,60565.00
2024-03-08T07:29:36.303Z,60496.88
2024-03-08T07:32:21.077Z,60476.22
2024-03-08T07:34:54.213Z,60490.69
2024-03-08T07:37:21.727Z,60501.00
2024-03-08T07:39:48.440Z,60461.75
2024-03-08T07:42:15.032Z,60420.47
2024-03-08T07:44:41.784Z,60395.69
2024-03-08T07:47:10.620Z,60329.63
2024-03-08T07:49:38.605Z,60311.03
2024-03-08T07:52:05.809Z,60255.28
2024-03-08T07:54:32.489Z,60249.09
2024-03-08T07:56:59.189Z,60189.22
2024-03-08T07:59:25.836Z,60160.31
2024-03-08T08:01:52.533Z,60135.53
2024-03-08T08:04:20.260Z,60073.59
2024-03-08T08:06:46.978Z,60032.28
2024-03-08T08:09:16.241Z,60032.28
2024-03-08T08:11:44.452Z,59966.22
2024-03-08T08:14:11.260Z,59957.97
2024-03-08T08:16:38.659Z,59854.72
2024-03-08T08:19:08.738Z,59724.66
2024-03-08T08:21:37.951Z,59726.72
2024-03-08T08:24:05.182Z,59739.13
2024-03-08T08:26:33.166Z,59693.69
2024-03-08T08:29:01.432Z,59580.16
2024-03-08T08:31:28.252Z,59545.06
2024-03-08T08:33:59.338Z,59445.97
2024-03-08T08:36:26.097Z,59400.56
2024-03-08T08:38:55.400Z,59346.91
2024-03-08T08:41:22.924Z,59346.91
2024-03-08T08:43:58.851Z,59340.69
2024-03-08T08:46:30.653Z,59320.06
2024-03-08T08:48:57.340Z,59229.22
2024-03-08T08:51:24.377Z,59198.28
2024-03-08T08:53:51.062Z,59165.25
2024-03-08T08:56:18.607Z,59165.25
2024-03-08T08:58:45.191Z,59111.59
2024-03-08T09:01:12.638Z,59062.03
2024-03-08T09:03:42.051Z,59070.28
2024-03-08T09:06:11.691Z,59041.41
2024-03-08T09:08:39.180Z,59041.41
2024-03-08T09:13:35.517Z,59020.75
2024-03-08T09:16:03.889Z,59000.13
2024-03-08T09:18:30.524Z,58989.81
2024-03-08T09:20:57.167Z,59004.25
2024-03-08T09:23:23.856Z,58903.13
2024-03-08T09:25:50.504Z,58921.69
2024-03-08T09:28:17.537Z,58913.44
2024-03-08T09:30:53.859Z,58861.84
2024-03-08T09:33:23.925Z,58857.72
2024-03-08T09:35:52.469Z,58837.06
2024-03-08T09:38:19.161Z,58727.69
2024-03-08T09:40:45.956Z,58756.56
2024-03-08T09:43:13.026Z,58725.63
2024-03-08T09:45:43.148Z,58731.81
2024-03-08T09:48:13.228Z,58733.88
2024-03-08T09:50:43.202Z,58692.59
2024-03-08T09:53:10.514Z,58686.41
2024-03-08T09:55:38.375Z,58610.03
2024-03-08T09:58:25.836Z,58659.56
2024-03-08T10:00:52.586Z,58694.66
2024-03-08T10:03:20.828Z,58657.50
2024-03-08T10:05:47.560Z,58661.63
2024-03-08T10:08:14.669Z,58667.81
2024-03-08T10:10:41.322Z,58620.34
2024-03-08T10:13:08.270Z,58579.09
2024-03-08T10:15:34.916Z,58477.97
2024-03-08T10:18:03.254Z,58463.50
2024-03-08T10:20:37.012Z,58455.25
2024-03-08T10:23:11.474Z,58447.00
2024-03-08T10:25:39.070Z,58407.78
2024-03-08T10:28:06.254Z,58399.53
2024-03-08T10:30:33.587Z,58411.91
2024-03-08T10:33:00.370Z,58368.59
2024-03-08T10:35:28.188Z,58296.34
2024-03-08T10:38:00.696Z,58319.06
2024-03-08T10:40:27.642Z,58265.41
2024-03-08T10:42:58.049Z,58248.91
2024-03-08T10:45:29.128Z,58240.66
2024-03-08T10:48:20.338Z,58211.75
2024-03-08T10:50:47.973Z,58156.03
2024-03-08T10:53:14.931Z,58118.91
2024-03-08T10:55:42.081Z,58067.31
2024-03-08T10:58:08.992Z,57999.22
2024-03-08T11:00:36.703Z,57997.16
2024-03-08T11:03:04.453Z,57986.84
2024-03-08T11:05:40.371Z,57955.88
2024-03-08T11:08:20.585Z,57964.13
2024-03-08T11:10:57.552Z,57900.16
2024-03-08T11:13:36.905Z,57889.84
2024-03-08T11:16:13.731Z,57852.72
2024-03-08T11:18:40.957Z,57850.66
2024-03-08T11:21:13.970Z,57778.44
2024-03-08T11:23:41.226Z,57782.56
2024-03-08T11:26:21.516Z,57805.25
2024-03-08T11:28:48.588Z,57807.31
2024-03-08T11:31:34.351Z,57817.63
2024-03-08T11:34:00.949Z,57772.25
2024-03-08T11:36:27.678Z,57778.44
2024-03-08T11:38:55.299Z,57737.16
2024-03-08T11:41:24.126Z,57741.28
2024-03-08T11:43:51.658Z,57755.75
2024-03-08T11:46:19.017Z,57766.06
2024-03-08T11:48:47.918Z,57743.34
2024-03-08T11:53:43.359Z,57735.09
2024-03-08T11:56:12.697Z,57720.66
2024-03-08T11:58:39.724Z,57747.50
2024-03-08T12:01:18.269Z,57770.19
2024-03-08T12:03:44.948Z,57766.06
2024-03-08T12:06:11.960Z,57832.09
2024-03-08T12:08:38.596Z,57836.22
2024-03-08T12:11:05.627Z,57784.63
2024-03-08T12:13:35.738Z,57790.81
2024-03-08T12:16:05.627Z,57739.22
2024-03-08T12:18:36.642Z,57735.09
2024-03-08T12:21:08.754Z,57718.59
2024-03-08T12:23:40.425Z,57730.97
2024-03-08T12:26:17.802Z,57700.03
2024-03-08T12:28:49.487Z,57714.47
2024-03-08T12:31:18.421Z,57708.28
2024-03-08T12:33:56.394Z,57743.34
2024-03-08T12:36:24.184Z,57735.09
2024-03-08T12:38:50.750Z,57718.59
2024-03-08T12:41:20.454Z,57730.97
2024-03-08T12:43:50.830Z,57712.41
2024-03-08T12:46:27.316Z,57737.16
2024-03-08T12:48:54.651Z,57755.75
2024-03-08T12:51:22.026Z,57794.94
2024-03-08T12:53:48.603Z,57803.19
2024-03-08T12:56:21.873Z,57805.25
2024-03-08T12:58:48.463Z,57832.09
2024-03-08T13:01:16.302Z,57817.63
2024-03-08T13:03:44.935Z,57786.69
2024-03-08T13:06:11.556Z,57823.81
2024-03-08T13:08:41.524Z,57819.69
2024-03-08T13:11:15.313Z,57819.69
2024-03-08T13:13:42.119Z,57809.38
2024-03-08T13:16:09.823Z,57809.38
2024-03-08T13:18:37.053Z,57813.50
2024-03-08T13:21:07.377Z,57799.06
2024-03-08T13:23:41.322Z,57782.56
2024-03-08T13:26:17.629Z,57751.63
2024-03-08T13:28:47.345Z,57772.25
2024-03-08T13:31:15.972Z,57772.25
2024-03-08T13:33:46.761Z,57774.31
2024-03-08T13:36:17.131Z,57770.19
2024-03-08T13:38:44.713Z,57753.69
2024-03-08T13:41:13.101Z,57780.50
2024-03-08T13:43:41.161Z,57747.50
2024-03-08T13:46:08.265Z,57759.88
2024-03-08T13:48:35.086Z,57766.06
2024-03-08T13:51:01.792Z,57749.56
2024-03-08T13:53:28.506Z,57755.75
2024-03-08T13:55:55.754Z,57728.91
2024-03-08T13:58:22.483Z,57751.63
2024-03-08T14:00:49.161Z,57728.91
2024-03-08T14:03:15.850Z,57733.03
2024-03-08T14:05:43.832Z,57745.41
2024-03-08T14:08:10.623Z,57726.84
2024-03-08T14:10:40.161Z,57786.69
2024-03-08T14:13:08.162Z,57722.72
2024-03-08T14:15:39.633Z,57759.88
2024-03-08T14:18:08.278Z,57753.69
2024-03-08T14:20:35.041Z,57753.69
2024-03-08T14:23:01.695Z,57720.66
2024-03-08T14:25:31.242Z,57720.66
2024-03-08T14:28:04.780Z,57724.78
2024-03-08T14:30:35.959Z,57720.66
2024-03-08T14:33:03.766Z,57716.53
2024-03-08T14:35:30.626Z,57724.78
2024-03-08T14:38:01.667Z,57716.53
2024-03-08T14:40:28.562Z,57712.41
2024-03-08T14:42:55.201Z,57747.50
2024-03-08T14:45:21.984Z,57724.78
2024-03-08T14:47:51.559Z,57716.53
2024-03-08T14:50:22.112Z,57735.09
2024-03-08T14:52:51.983Z,57741.28
2024-03-08T14:55:20.962Z,57739.22
2024-03-08T14:57:47.644Z,57724.78
2024-03-08T15:00:18.135Z,57739.22
2024-03-08T15:02:45.479Z,57741.28
2024-03-08T15:05:14.984Z,57728.91
2024-03-08T15:07:41.990Z,57728.91
2024-03-08T15:10:12.143Z,57728.91
2024-03-08T15:12:40.597Z,57695.91
2024-03-08T15:15:11.087Z,57708.28
2024-03-08T15:17:40.875Z,57708.28
2024-03-08T15:20:16.184Z,57702.09
2024-03-08T15:22:45.279Z,57726.84
2024-03-08T15:25:21.523Z,57714.47
2024-03-08T15:27:49.791Z,57704.16
2024-03-08T15:30:17.890Z,57720.66
2024-03-08T15:32:48.734Z,57724.78
2024-03-08T15:35:17.740Z,57716.53
2024-03-08T15:37:46.173Z,57687.66
2024-03-08T15:40:24.979Z,57704.16
2024-03-08T15:43:00.650Z,57687.66
2024-03-08T15:45:37.926Z,57710.34
2024-03-08T15:48:06.550Z,57695.91
2024-03-08T15:50:36.292Z,57702.09
2024-03-08T15:53:03.268Z,57722.72
2024-03-08T15:55:30.778Z,57685.59
2024-03-08T15:57:57.643Z,57675.28
2024-03-08T16:00:42.964Z,57677.34
2024-03-08T16:03:12.288Z,57716.53
2024-03-08T16:05:45.530Z,57693.84
2024-03-08T16:08:22.481Z,57691.78
2024-03-08T16:10:51.131Z,57706.22
2024-03-08T16:13:18.884Z,57683.53
2024-03-08T16:15:47.616Z,57693.84
2024-03-08T16:18:17.138Z,57712.41
2024-03-08T16:20:44.709Z,57689.72
2024-03-08T16:23:15.527Z,57685.59
2024-03-08T16:25:45.297Z,57712.41
2024-03-08T16:28:12.315Z,57706.22
2024-03-08T16:30:40.871Z,57685.59
2024-03-08T16:33:07.979Z,57704.16
2024-03-08T16:35:37.057Z,57700.03
2024-03-08T16:38:03.981Z,57712.41
2024-03-08T16:40:30.817Z,57677.34
2024-03-08T16:42:57.478Z,57687.66
2024-03-08T16:45:24.390Z,57687.66
2024-03-08T16:47:57.994Z,57702.09
2024-03-08T16:50:24.719Z,57691.78
2024-03-08T16:52:56.826Z,57687.66
2024-03-08T16:55:25.750Z,57708.28
2024-03-08T16:57:52.353Z,57683.53
2024-03-08T17:00:23.219Z,57702.09
2024-03-08T17:02:50.991Z,57706.22
2024-03-08T17:05:17.796Z,57689.72
2024-03-08T17:07:52.874Z,57710.34
2024-03-08T17:10:20.681Z,57724.78
2024-03-08T17:12:50.933Z,57708.28
2024-03-08T17:15:22.926Z,57675.28
2024-03-08T17:17:54.479Z,57718.59
2024-03-08T17:20:21.834Z,57714.47
2024-03-08T17:22:49.406Z,57675.28
2024-03-08T17:25:16.476Z,57675.28
2024-03-08T17:27:45.531Z,57697.97
2024-03-08T17:30:20.961Z,57702.09
2024-03-08T17:32:49.595Z,57720.66
2024-03-08T17:35:19.814Z,57712.41
2024-03-08T17:37:48.200Z,57683.53
2024-03-08T17:40:19.131Z,57710.34
2024-03-08T17:42:46.546Z,57700.03
2024-03-08T17:45:14.578Z,57679.41
2024-03-08T17:47:41.905Z,57706.22
2024-03-08T17:50:11.298Z,57714.47
2024-03-08T17:52:39.392Z,57722.72
2024-03-08T17:55:10.354Z,57716.53
2024-03-08T17:57:40.921Z,57716.53
2024-03-08T18:00:13.752Z,57726.84
2024-03-08T18:02:40.479Z,57697.97
2024-03-08T18:05:08.567Z,57679.41
2024-03-08T18:07:35.183Z,57704.16
2024-03-08T18:10:02.540Z,57720.66
2024-03-08T18:12:31.105Z,57706.22
2024-03-08T18:14:59.271Z,57708.28
2024-03-08T18:17:25.913Z,57667.03
2024-03-08T18:19:52.896Z,57700.03
2024-03-08T18:22:19.609Z,57720.66
2024-03-08T18:24:47.278Z,57706.22
2024-03-08T18:27:14.406Z,57720.66
2024-03-08T18:29:41.141Z,57720.66
2024-03-08T18:32:08.864Z,57726.84
2024-03-08T18:34:37.420Z,57706.22
2024-03-08T18:37:06.127Z,57730.97
2024-03-08T18:39:32.748Z,57722.72
2024-03-08T18:41:59.338Z,57708.28
2024-03-08T18:44:25.900Z,57679.41
2024-03-08T18:46:57.739Z,57712.41
2024-03-08T18:49:24.426Z,57724.78
2024-03-08T18:51:55.476Z,57722.72
2024-03-08T18:54:22.189Z,57708.28
2024-03-08T18:56:52.707Z,57724.78
2024-03-08T18:59:19.380Z,57689.72
2024-03-08T19:01:49.062Z,57743.34
2024-03-08T19:04:16.004Z,57733.03
2024-03-08T19:06:42.613Z,57708.28
2024-03-08T19:09:11.524Z,57720.66
2024-03-08T19:11:38.223Z,57728.91
2024-03-08T19:14:04.891Z,57712.41
2024-03-08T19:16:31.571Z,57695.91
2024-03-08T19:18:58.181Z,57737.16
2024-03-08T19:21:25.502Z,57708.28
2024-03-08T19:23:52.406Z,57708.28
2024-03-08T19:26:23.246Z,57704.16
2024-03-08T19:28:50.009Z,57716.53
2024-03-08T19:31:16.639Z,57697.97
2024-03-08T19:33:43.210Z,57714.47
2024-03-08T19:36:13.489Z,57706.22
2024-03-08T19:38:41.610Z,57724.78
2024-03-08T19:41:08.300Z,57716.53
2024-03-08T19:43:34.962Z,57728.91
2024-03-08T19:46:01.900Z,57728.91
2024-03-08T19:48:28.978Z,57695.91
2024-03-08T19:50:56.668Z,57710.34
2024-03-08T19:53:23.793Z,57726.84
2024-03-08T19:55:52.178Z,57735.09
2024-03-08T19:58:19.998Z,57745.41
2024-03-08T20:00:48.609Z,57724.78
2024-03-08T20:03:22.079Z,57724.78
2024-03-08T20:05:49.410Z,57737.16
2024-03-08T20:08:16.281Z,57712.41
2024-03-08T20:10:43.602Z,57728.91
2024-03-08T20:13:10.720Z,57700.03
2024-03-08T20:15:48.898Z,57730.97
2024-03-08T20:18:16.200Z,57726.84
2024-03-08T20:20:49.601Z,57700.03
2024-03-08T20:23:17.629Z,57714.47
2024-03-08T20:25:46.774Z,57716.53
2024-03-08T20:28:13.896Z,57737.16
2024-03-08T20:30:43.189Z,57739.22
2024-03-08T20:33:10.108Z,57720.66
2024-03-08T20:35:36.757Z,57720.66
2024-03-08T20:38:21.230Z,57700.03
2024-03-08T20:40:48.270Z,57706.22
2024-03-08T20:43:19.465Z,57708.28
2024-03-08T20:45:47.753Z,57720.66
2024-03-08T20:48:15.300Z,57720.66
2024-03-08T20:50:43.292Z,57749.56
2024-03-08T20:53:12.209Z,57728.91
2024-03-08T20:55:45.859Z,57726.84
2024-03-08T20:58:12.876Z,57749.56
2024-03-08T21:00:39.536Z,57739.22
2024-03-08T21:03:08.643Z,57735.09
2024-03-08T21:05:36.907Z,57714.47
2024-03-08T21:08:06.937Z,57714.47
2024-03-08T21:10:36.168Z,57716.53
2024-03-08T21:13:03.486Z,57745.41
2024-03-08T21:15:30.127Z,57722.72
2024-03-08T21:17:56.937Z,57733.03
2024-03-08T21:20:24.900Z,57718.59
2024-03-08T21:22:51.945Z,57712.41
2024-03-08T21:25:21.879Z,57753.69
2024-03-08T21:27:48.602Z,57712.41
2024-03-08T21:30:26.259Z,57726.84
2024-03-08T21:32:53.673Z,57714.47
2024-03-08T21:35:21.034Z,57768.13
2024-03-08T21:37:48.861Z,57728.91
2024-03-08T21:40:22.910Z,57739.22
2024-03-08T21:42:50.669Z,57726.84
2024-03-08T21:45:17.602Z,57714.47
2024-03-08T21:47:44.377Z,57716.53
2024-03-08T21:50:15.248Z,57728.91
2024-03-08T21:52:45.430Z,57714.47
2024-03-08T21:55:12.972Z,57700.03
2024-03-08T21:57:39.597Z,57735.09
2024-03-08T22:00:12.570Z,57712.41
2024-03-08T22:02:43.480Z,57724.78
2024-03-08T22:05:11.573Z,57728.91
2024-03-08T22:07:38.289Z,57702.09
2024-03-08T22:10:05.296Z,57749.56
2024-03-08T22:12:32.502Z,57724.78
2024-03-08T22:14:59.206Z,57733.03
2024-03-08T22:17:26.281Z,57730.97
2024-03-08T22:19:53.503Z,57718.59
2024-03-08T22:22:20.832Z,57728.91
2024-03-08T22:24:54.362Z,57759.88
2024-03-08T22:27:22.203Z,57730.97
2024-03-08T22:29:49.180Z,57714.47
2024-03-08T22:32:16.363Z,57716.53
2024-03-08T22:34:43.034Z,57722.72
2024-03-08T22:37:15.104Z,57743.34
2024-03-08T22:39:41.906Z,57712.41
2024-03-08T22:42:08.531Z,57718.59
2024-03-08T22:44:35.666Z,57730.97
2024-03-08T22:47:04.712Z,57735.09
2024-03-08T22:49:32.640Z,57726.84
2024-03-08T22:52:00.799Z,57724.78
2024-03-08T22:54:27.465Z,57712.41
2024-03-08T22:56:54.124Z,57730.97
2024-03-08T22:59:24.348Z,57683.53
2024-03-08T23:01:53.620Z,57687.66
2024-03-08T23:04:20.496Z,57708.28
2024-03-08T23:06:47.080Z,57708.28
2024-03-08T23:09:16.436Z,57733.03
2024-03-08T23:11:44.354Z,57708.28
2024-03-08T23:14:12.290Z,57716.53
2024-03-08T23:16:39.474Z,57739.22
2024-03-08T23:19:06.369Z,57747.50
2024-03-08T23:21:32.994Z,57722.72
2024-03-08T23:23:59.574Z,57728.91
2024-03-08T23:26:28.971Z,57704.16
2024-03-08T23:28:55.630Z,57739.22
2024-03-08T23:31:22.832Z,57741.28
2024-03-08T23:33:50.913Z,57728.91
2024-03-08T23:36:17.778Z,57718.59
2024-03-08T23:38:45.875Z,57716.53
2024-03-08T23:41:12.661Z,57737.16
2024-03-08T23:43:41.514Z,57718.59
2024-03-08T23:46:08.194Z,57735.09
2024-03-08T23:48:34.809Z,57747.50
2024-03-08T23:51:01.412Z,57718.59
2024-03-08T23:53:27.995Z,57761.94
2024-03-08T23:55:56.212Z,57702.09
2024-03-08T23:58:22.925Z,57724.78
